sensor_id;sensor_type;location;lat;lon;timestamp;P1;durP1;ratioP1;P2;durP2;ratioP2
21202;SDS011;10759;51.982;9.232;2022-09-30T00:01:39;8.23;;;7.70;;
21202;SDS011;10759;51.982;9.232;2022-09-30T00:04:08;8.70;;;7.90;;
21202;SDS011;10759;51.982;9.232;2022-09-30T00:06:40;7.60;;;7.13;;
21202;SDS011;10759;51.982;9.232;2022-09-30T00:09:08;8.48;;;7.90;;
21202;SDS011;10759;51.982;9.232;2022-09-30T00:11:38;8.43;;;7.68;;
21202;SDS011;10759;51.982;9.232;2022-09-30T00:14:07;8.10;;;7.60;;
21202;SDS011;10759;51.982;9.232;2022-09-30T00:16:42;8.05;;;7.00;;
21202;SDS011;10759;51.982;9.232;2022-09-30T00:19:11;8.30;;;7.50;;
21202;SDS011;10759;51.982;9.232;2022-09-30T00:21:40;8.63;;;8.02;;
21202;SDS011;10759;51.982;9.232;2022-09-30T00:24:08;7.68;;;7.18;;
21202;SDS011;10759;51.982;9.232;2022-09-30T00:26:36;8.82;;;8.02;;
21202;SDS011;10759;51.982;9.232;2022-09-30T00:29:04;8.68;;;7.97;;
21202;SDS011;10759;51.982;9.232;2022-09-30T00:31:33;8.80;;;8.07;;
21202;SDS011;10759;51.982;9.232;2022-09-30T00:34:04;8.20;;;7.60;;
21202;SDS011;10759;51.982;9.232;2022-09-30T00:36:40;8.57;;;7.88;;
21202;SDS011;10759;51.982;9.232;2022-09-30T00:39:11;7.65;;;7.15;;
21202;SDS011;10759;51.982;9.232;2022-09-30T00:41:41;8.32;;;7.63;;
21202;SDS011;10759;51.982;9.232;2022-09-30T00:50:19;9.02;;;8.32;;
21202;SDS011;10759;51.982;9.232;2022-09-30T00:53:03;7.80;;;7.30;;
21202;SDS011;10759;51.982;9.232;2022-09-30T00:55:40;7.88;;;7.38;;
21202;SDS011;10759;51.982;9.232;2022-09-30T00:58:15;8.20;;;7.70;;
21202;SDS011;10759;51.982;9.232;2022-09-30T01:00:48;9.80;;;9.00;;
21202;SDS011;10759;51.982;9.232;2022-09-30T01:03:18;8.50;;;8.00;;
21202;SDS011;10759;51.982;9.232;2022-09-30T01:08:20;9.15;;;8.45;;
21202;SDS011;10759;51.982;9.232;2022-09-30T01:10:51;8.35;;;7.80;;
21202;SDS011;10759;51.982;9.232;2022-09-30T01:13:19;7.80;;;7.30;;
21202;SDS011;10759;51.982;9.232;2022-09-30T01:16:05;8.38;;;7.78;;
21202;SDS011;10759;51.982;9.232;2022-09-30T01:18:57;9.10;;;8.40;;
21202;SDS011;10759;51.982;9.232;2022-09-30T01:24:52;9.25;;;8.45;;
21202;SDS011;10759;51.982;9.232;2022-09-30T01:27:46;9.93;;;9.23;;
21202;SDS011;10759;51.982;9.232;2022-09-30T01:30:47;10.80;;;10.00;;
21202;SDS011;10759;51.982;9.232;2022-09-30T01:33:34;13.73;;;12.75;;
21202;SDS011;10759;51.982;9.232;2022-09-30T01:36:16;16.42;;;14.93;;
21202;SDS011;10759;51.982;9.232;2022-09-30T01:39:11;13.52;;;12.55;;
21202;SDS011;10759;51.982;9.232;2022-09-30T01:41:49;11.75;;;10.73;;
21202;SDS011;10759;51.982;9.232;2022-09-30T01:44:26;11.80;;;11.00;;
21202;SDS011;10759;51.982;9.232;2022-09-30T01:47:04;11.23;;;10.40;;
21202;SDS011;10759;51.982;9.232;2022-09-30T01:49:38;11.10;;;10.40;;
21202;SDS011;10759;51.982;9.232;2022-09-30T01:52:12;10.85;;;9.95;;
21202;SDS011;10759;51.982;9.232;2022-09-30T01:54:44;10.05;;;9.23;;
21202;SDS011;10759;51.982;9.232;2022-09-30T01:57:19;10.57;;;9.77;;
21202;SDS011;10759;51.982;9.232;2022-09-30T01:59:56;10.38;;;9.48;;
21202;SDS011;10759;51.982;9.232;2022-09-30T02:02:37;9.40;;;8.60;;
21202;SDS011;10759;51.982;9.232;2022-09-30T02:05:10;8.40;;;7.80;;
21202;SDS011;10759;51.982;9.232;2022-09-30T02:07:41;8.23;;;7.72;;
21202;SDS011;10759;51.982;9.232;2022-09-30T02:10:14;9.10;;;8.35;;
21202;SDS011;10759;51.982;9.232;2022-09-30T02:12:46;10.77;;;10.00;;
21202;SDS011;10759;51.982;9.232;2022-09-30T02:15:21;10.07;;;9.10;;
21202;SDS011;10759;51.982;9.232;2022-09-30T02:17:53;10.52;;;9.73;;
21202;SDS011;10759;51.982;9.232;2022-09-30T02:20:26;12.45;;;11.55;;
21202;SDS011;10759;51.982;9.232;2022-09-30T02:23:01;11.88;;;11.05;;
21202;SDS011;10759;51.982;9.232;2022-09-30T02:25:32;11.95;;;11.05;;
21202;SDS011;10759;51.982;9.232;2022-09-30T02:28:05;15.85;;;12.85;;
21202;SDS011;10759;51.982;9.232;2022-09-30T02:30:38;12.90;;;11.90;;
21202;SDS011;10759;51.982;9.232;2022-09-30T02:33:14;12.57;;;11.57;;
21202;SDS011;10759;51.982;9.232;2022-09-30T02:35:47;12.57;;;11.68;;
21202;SDS011;10759;51.982;9.232;2022-09-30T02:38:20;12.30;;;11.40;;
21202;SDS011;10759;51.982;9.232;2022-09-30T02:40:53;12.63;;;11.57;;
21202;SDS011;10759;51.982;9.232;2022-09-30T02:43:25;16.10;;;14.50;;
21202;SDS011;10759;51.982;9.232;2022-09-30T02:45:54;14.77;;;13.52;;
21202;SDS011;10759;51.982;9.232;2022-09-30T02:48:35;14.25;;;12.70;;
21202;SDS011;10759;51.982;9.232;2022-09-30T02:51:10;13.23;;;12.13;;
21202;SDS011;10759;51.982;9.232;2022-09-30T02:53:45;15.93;;;14.63;;
21202;SDS011;10759;51.982;9.232;2022-09-30T02:56:22;14.00;;;12.55;;
21202;SDS011;10759;51.982;9.232;2022-09-30T02:58:55;14.25;;;13.10;;
21202;SDS011;10759;51.982;9.232;2022-09-30T03:01:24;12.85;;;11.88;;
21202;SDS011;10759;51.982;9.232;2022-09-30T03:03:54;15.20;;;13.80;;
21202;SDS011;10759;51.982;9.232;2022-09-30T03:06:25;13.02;;;12.02;;
21202;SDS011;10759;51.982;9.232;2022-09-30T03:08:54;14.55;;;13.32;;
21202;SDS011;10759;51.982;9.232;2022-09-30T03:11:23;13.13;;;11.93;;
21202;SDS011;10759;51.982;9.232;2022-09-30T03:16:29;11.85;;;10.73;;
21202;SDS011;10759;51.982;9.232;2022-09-30T03:19:15;12.50;;;11.45;;
21202;SDS011;10759;51.982;9.232;2022-09-30T03:22:03;13.15;;;11.95;;
21202;SDS011;10759;51.982;9.232;2022-09-30T03:24:45;13.98;;;12.35;;
21202;SDS011;10759;51.982;9.232;2022-09-30T03:27:27;19.92;;;13.10;;
21202;SDS011;10759;51.982;9.232;2022-09-30T03:30:00;13.43;;;12.45;;
21202;SDS011;10759;51.982;9.232;2022-09-30T03:32:38;14.35;;;13.18;;
21202;SDS011;10759;51.982;9.232;2022-09-30T03:35:24;14.37;;;13.27;;
21202;SDS011;10759;51.982;9.232;2022-09-30T03:37:58;15.02;;;13.45;;
21202;SDS011;10759;51.982;9.232;2022-09-30T03:40:35;22.63;;;14.10;;
21202;SDS011;10759;51.982;9.232;2022-09-30T03:43:09;17.80;;;14.40;;
21202;SDS011;10759;51.982;9.232;2022-09-30T03:45:47;32.50;;;13.15;;
21202;SDS011;10759;51.982;9.232;2022-09-30T03:48:19;40.83;;;13.77;;
21202;SDS011;10759;51.982;9.232;2022-09-30T03:50:50;46.17;;;14.30;;
21202;SDS011;10759;51.982;9.232;2022-09-30T03:53:19;34.70;;;13.00;;
21202;SDS011;10759;51.982;9.232;2022-09-30T03:55:48;32.28;;;13.45;;
21202;SDS011;10759;51.982;9.232;2022-09-30T03:58:18;33.13;;;12.80;;
21202;SDS011;10759;51.982;9.232;2022-09-30T04:00:49;21.98;;;13.15;;
21202;SDS011;10759;51.982;9.232;2022-09-30T04:03:18;16.27;;;11.80;;
21202;SDS011;10759;51.982;9.232;2022-09-30T04:05:48;12.82;;;11.93;;
21202;SDS011;10759;51.982;9.232;2022-09-30T04:08:17;12.20;;;11.27;;
21202;SDS011;10759;51.982;9.232;2022-09-30T04:10:45;15.07;;;13.98;;
21202;SDS011;10759;51.982;9.232;2022-09-30T04:13:13;14.00;;;13.00;;
21202;SDS011;10759;51.982;9.232;2022-09-30T04:15:41;14.80;;;13.73;;
21202;SDS011;10759;51.982;9.232;2022-09-30T04:18:09;14.73;;;13.52;;
21202;SDS011;10759;51.982;9.232;2022-09-30T04:20:37;17.23;;;15.73;;
21202;SDS011;10759;51.982;9.232;2022-09-30T04:23:05;14.93;;;13.82;;
21202;SDS011;10759;51.982;9.232;2022-09-30T04:25:34;15.02;;;13.88;;
21202;SDS011;10759;51.982;9.232;2022-09-30T04:28:02;14.35;;;13.20;;
21202;SDS011;10759;51.982;9.232;2022-09-30T04:30:30;14.38;;;13.38;;
21202;SDS011;10759;51.982;9.232;2022-09-30T04:32:59;16.55;;;14.93;;
21202;SDS011;10759;51.982;9.232;2022-09-30T04:35:27;21.75;;;19.15;;
21202;SDS011;10759;51.982;9.232;2022-09-30T04:37:55;27.80;;;19.85;;
21202;SDS011;10759;51.982;9.232;2022-09-30T04:40:23;20.33;;;16.98;;
21202;SDS011;10759;51.982;9.232;2022-09-30T04:42:55;20.02;;;18.00;;
21202;SDS011;10759;51.982;9.232;2022-09-30T04:45:23;22.65;;;19.45;;
21202;SDS011;10759;51.982;9.232;2022-09-30T04:47:51;23.17;;;20.75;;
21202;SDS011;10759;51.982;9.232;2022-09-30T04:50:19;19.35;;;17.75;;
21202;SDS011;10759;51.982;9.232;2022-09-30T04:52:48;21.17;;;18.50;;
21202;SDS011;10759;51.982;9.232;2022-09-30T04:55:16;22.67;;;20.38;;
21202;SDS011;10759;51.982;9.232;2022-09-30T04:57:45;21.77;;;19.77;;
21202;SDS011;10759;51.982;9.232;2022-09-30T05:00:14;18.05;;;16.65;;
21202;SDS011;10759;51.982;9.232;2022-09-30T05:02:42;18.90;;;17.27;;
21202;SDS011;10759;51.982;9.232;2022-09-30T05:05:11;18.00;;;16.60;;
21202;SDS011;10759;51.982;9.232;2022-09-30T05:07:38;17.38;;;16.02;;
21202;SDS011;10759;51.982;9.232;2022-09-30T05:10:07;17.25;;;15.95;;
21202;SDS011;10759;51.982;9.232;2022-09-30T05:12:38;17.45;;;16.15;;
21202;SDS011;10759;51.982;9.232;2022-09-30T05:15:06;16.00;;;14.80;;
21202;SDS011;10759;51.982;9.232;2022-09-30T05:17:36;16.73;;;15.45;;
21202;SDS011;10759;51.982;9.232;2022-09-30T05:20:05;15.65;;;14.25;;
21202;SDS011;10759;51.982;9.232;2022-09-30T05:22:36;20.33;;;18.55;;
21202;SDS011;10759;51.982;9.232;2022-09-30T05:25:04;22.17;;;20.10;;
21202;SDS011;10759;51.982;9.232;2022-09-30T05:27:33;20.10;;;18.42;;
21202;SDS011;10759;51.982;9.232;2022-09-30T05:30:01;18.40;;;16.63;;
21202;SDS011;10759;51.982;9.232;2022-09-30T05:32:29;19.58;;;17.98;;
21202;SDS011;10759;51.982;9.232;2022-09-30T05:34:59;20.90;;;18.83;;
21202;SDS011;10759;51.982;9.232;2022-09-30T05:37:28;19.13;;;17.63;;
21202;SDS011;10759;51.982;9.232;2022-09-30T05:39:56;20.05;;;18.42;;
21202;SDS011;10759;51.982;9.232;2022-09-30T05:42:24;19.83;;;18.13;;
21202;SDS011;10759;51.982;9.232;2022-09-30T05:44:52;18.17;;;16.67;;
21202;SDS011;10759;51.982;9.232;2022-09-30T05:47:21;19.55;;;17.85;;
21202;SDS011;10759;51.982;9.232;2022-09-30T05:49:49;18.42;;;17.00;;
21202;SDS011;10759;51.982;9.232;2022-09-30T05:52:22;19.23;;;17.52;;
21202;SDS011;10759;51.982;9.232;2022-09-30T05:54:51;18.23;;;16.52;;
21202;SDS011;10759;51.982;9.232;2022-09-30T05:57:19;18.13;;;16.63;;
21202;SDS011;10759;51.982;9.232;2022-09-30T05:59:47;19.73;;;18.30;;
21202;SDS011;10759;51.982;9.232;2022-09-30T06:02:16;18.77;;;17.45;;
21202;SDS011;10759;51.982;9.232;2022-09-30T06:04:44;19.00;;;17.60;;
21202;SDS011;10759;51.982;9.232;2022-09-30T06:07:12;17.92;;;16.55;;
21202;SDS011;10759;51.982;9.232;2022-09-30T06:09:41;18.42;;;17.13;;
21202;SDS011;10759;51.982;9.232;2022-09-30T06:12:11;21.10;;;19.27;;
21202;SDS011;10759;51.982;9.232;2022-09-30T06:14:39;20.23;;;18.63;;
21202;SDS011;10759;51.982;9.232;2022-09-30T06:17:07;19.85;;;18.17;;
21202;SDS011;10759;51.982;9.232;2022-09-30T06:19:35;18.52;;;17.15;;
21202;SDS011;10759;51.982;9.232;2022-09-30T06:22:03;19.08;;;17.58;;
21202;SDS011;10759;51.982;9.232;2022-09-30T06:24:31;19.00;;;17.50;;
21202;SDS011;10759;51.982;9.232;2022-09-30T06:27:00;18.83;;;17.33;;
21202;SDS011;10759;51.982;9.232;2022-09-30T06:29:28;18.75;;;17.25;;
21202;SDS011;10759;51.982;9.232;2022-09-30T06:31:56;18.90;;;17.42;;
21202;SDS011;10759;51.982;9.232;2022-09-30T06:34:24;21.40;;;19.65;;
21202;SDS011;10759;51.982;9.232;2022-09-30T06:36:52;20.05;;;18.25;;
21202;SDS011;10759;51.982;9.232;2022-09-30T06:39:20;22.75;;;20.75;;
21202;SDS011;10759;51.982;9.232;2022-09-30T06:41:48;21.33;;;19.35;;
21202;SDS011;10759;51.982;9.232;2022-09-30T06:44:24;16.52;;;15.15;;
21202;SDS011;10759;51.982;9.232;2022-09-30T06:46:52;20.63;;;18.90;;
21202;SDS011;10759;51.982;9.232;2022-09-30T06:49:20;20.20;;;18.70;;
21202;SDS011;10759;51.982;9.232;2022-09-30T06:51:48;20.85;;;19.08;;
21202;SDS011;10759;51.982;9.232;2022-09-30T06:54:17;20.63;;;19.02;;
21202;SDS011;10759;51.982;9.232;2022-09-30T06:56:46;19.88;;;18.35;;
21202;SDS011;10759;51.982;9.232;2022-09-30T06:59:14;21.83;;;19.98;;
21202;SDS011;10759;51.982;9.232;2022-09-30T07:01:44;21.65;;;19.85;;
21202;SDS011;10759;51.982;9.232;2022-09-30T07:04:12;20.95;;;19.27;;
21202;SDS011;10759;51.982;9.232;2022-09-30T07:06:41;21.90;;;20.08;;
21202;SDS011;10759;51.982;9.232;2022-09-30T07:09:09;22.15;;;20.05;;
21202;SDS011;10759;51.982;9.232;2022-09-30T07:11:37;20.52;;;18.92;;
21202;SDS011;10759;51.982;9.232;2022-09-30T07:14:05;20.95;;;19.27;;
21202;SDS011;10759;51.982;9.232;2022-09-30T07:16:34;21.40;;;19.80;;
21202;SDS011;10759;51.982;9.232;2022-09-30T07:19:03;21.30;;;19.70;;
21202;SDS011;10759;51.982;9.232;2022-09-30T07:21:34;20.25;;;18.55;;
21202;SDS011;10759;51.982;9.232;2022-09-30T07:24:02;18.83;;;17.23;;
21202;SDS011;10759;51.982;9.232;2022-09-30T07:26:30;20.10;;;18.70;;
21202;SDS011;10759;51.982;9.232;2022-09-30T07:28:58;20.05;;;18.55;;
21202;SDS011;10759;51.982;9.232;2022-09-30T07:31:26;17.63;;;16.33;;
21202;SDS011;10759;51.982;9.232;2022-09-30T07:34:00;18.73;;;17.02;;
21202;SDS011;10759;51.982;9.232;2022-09-30T07:36:30;18.25;;;16.95;;
21202;SDS011;10759;51.982;9.232;2022-09-30T07:38:59;18.45;;;16.95;;
21202;SDS011;10759;51.982;9.232;2022-09-30T07:41:32;18.45;;;17.08;;
21202;SDS011;10759;51.982;9.232;2022-09-30T07:44:02;18.25;;;16.95;;
21202;SDS011;10759;51.982;9.232;2022-09-30T07:46:32;16.88;;;15.40;;
21202;SDS011;10759;51.982;9.232;2022-09-30T07:49:05;16.90;;;15.68;;
21202;SDS011;10759;51.982;9.232;2022-09-30T07:54:05;16.27;;;14.95;;
21202;SDS011;10759;51.982;9.232;2022-09-30T07:56:34;14.75;;;13.63;;
21202;SDS011;10759;51.982;9.232;2022-09-30T07:59:24;15.25;;;13.95;;
21202;SDS011;10759;51.982;9.232;2022-09-30T08:01:52;13.70;;;12.70;;
21202;SDS011;10759;51.982;9.232;2022-09-30T08:04:21;14.73;;;13.73;;
21202;SDS011;10759;51.982;9.232;2022-09-30T08:06:52;15.98;;;14.77;;
21202;SDS011;10759;51.982;9.232;2022-09-30T08:09:22;15.70;;;14.52;;
21202;SDS011;10759;51.982;9.232;2022-09-30T08:11:52;14.77;;;13.77;;
21202;SDS011;10759;51.982;9.232;2022-09-30T08:14:21;15.00;;;13.90;;
21202;SDS011;10759;51.982;9.232;2022-09-30T08:16:51;14.32;;;13.13;;
21202;SDS011;10759;51.982;9.232;2022-09-30T08:21:52;14.25;;;13.02;;
21202;SDS011;10759;51.982;9.232;2022-09-30T08:24:20;14.00;;;12.90;;
21202;SDS011;10759;51.982;9.232;2022-09-30T08:26:49;14.27;;;13.23;;
21202;SDS011;10759;51.982;9.232;2022-09-30T08:29:17;14.00;;;12.95;;
21202;SDS011;10759;51.982;9.232;2022-09-30T08:32:05;13.48;;;12.38;;
21202;SDS011;10759;51.982;9.232;2022-09-30T08:34:34;13.10;;;12.02;;
21202;SDS011;10759;51.982;9.232;2022-09-30T08:37:03;12.95;;;11.95;;
21202;SDS011;10759;51.982;9.232;2022-09-30T08:39:35;13.10;;;11.90;;
21202;SDS011;10759;51.982;9.232;2022-09-30T08:42:06;12.38;;;11.45;;
21202;SDS011;10759;51.982;9.232;2022-09-30T08:45:02;12.85;;;11.93;;
21202;SDS011;10759;51.982;9.232;2022-09-30T08:47:42;12.93;;;12.07;;
21202;SDS011;10759;51.982;9.232;2022-09-30T08:50:18;11.32;;;10.55;;
21202;SDS011;10759;51.982;9.232;2022-09-30T08:52:56;11.05;;;10.15;;
21202;SDS011;10759;51.982;9.232;2022-09-30T08:55:28;11.68;;;10.68;;
21202;SDS011;10759;51.982;9.232;2022-09-30T08:58:02;12.10;;;11.20;;
21202;SDS011;10759;51.982;9.232;2022-09-30T09:00:31;11.05;;;10.25;;
21202;SDS011;10759;51.982;9.232;2022-09-30T09:03:00;12.07;;;11.18;;
21202;SDS011;10759;51.982;9.232;2022-09-30T09:05:31;10.93;;;9.98;;
21202;SDS011;10759;51.982;9.232;2022-09-30T09:08:20;11.20;;;10.30;;
21202;SDS011;10759;51.982;9.232;2022-09-30T09:10:57;11.73;;;10.90;;
21202;SDS011;10759;51.982;9.232;2022-09-30T09:13:35;10.57;;;9.75;;
21202;SDS011;10759;51.982;9.232;2022-09-30T09:16:14;10.05;;;9.25;;
21202;SDS011;10759;51.982;9.232;2022-09-30T09:18:50;9.65;;;8.82;;
21202;SDS011;10759;51.982;9.232;2022-09-30T09:21:29;11.20;;;10.07;;
21202;SDS011;10759;51.982;9.232;2022-09-30T09:24:13;9.30;;;8.70;;
21202;SDS011;10759;51.982;9.232;2022-09-30T09:26:42;10.68;;;9.50;;
21202;SDS011;10759;51.982;9.232;2022-09-30T09:29:18;9.75;;;8.85;;
21202;SDS011;10759;51.982;9.232;2022-09-30T09:31:52;9.25;;;8.43;;
21202;SDS011;10759;51.982;9.232;2022-09-30T09:34:21;12.63;;;9.20;;
21202;SDS011;10759;51.982;9.232;2022-09-30T09:36:54;9.10;;;8.40;;
21202;SDS011;10759;51.982;9.232;2022-09-30T09:39:37;8.68;;;7.97;;
21202;SDS011;10759;51.982;9.232;2022-09-30T09:42:30;8.55;;;7.82;;
21202;SDS011;10759;51.982;9.232;2022-09-30T09:45:11;7.70;;;7.00;;
21202;SDS011;10759;51.982;9.232;2022-09-30T09:47:49;8.45;;;7.65;;
21202;SDS011;10759;51.982;9.232;2022-09-30T09:50:18;8.57;;;7.97;;
21202;SDS011;10759;51.982;9.232;2022-09-30T09:53:12;9.73;;;8.73;;
21202;SDS011;10759;51.982;9.232;2022-09-30T09:55:49;9.63;;;8.73;;
21202;SDS011;10759;51.982;9.232;2022-09-30T09:58:24;9.05;;;8.25;;
21202;SDS011;10759;51.982;9.232;2022-09-30T10:00:53;9.27;;;8.57;;
21202;SDS011;10759;51.982;9.232;2022-09-30T10:04:05;10.07;;;9.15;;
21202;SDS011;10759;51.982;9.232;2022-09-30T10:06:43;9.82;;;9.13;;
21202;SDS011;10759;51.982;9.232;2022-09-30T10:09:30;9.07;;;8.32;;
21202;SDS011;10759;51.982;9.232;2022-09-30T10:15:00;7.80;;;7.10;;
21202;SDS011;10759;51.982;9.232;2022-09-30T10:17:31;8.70;;;7.93;;
21202;SDS011;10759;51.982;9.232;2022-09-30T10:20:02;8.70;;;8.00;;
21202;SDS011;10759;51.982;9.232;2022-09-30T10:22:33;7.65;;;6.95;;
21202;SDS011;10759;51.982;9.232;2022-09-30T10:25:13;7.40;;;6.80;;
21202;SDS011;10759;51.982;9.232;2022-09-30T10:27:47;7.30;;;6.18;;
21202;SDS011;10759;51.982;9.232;2022-09-30T10:30:32;5.15;;;4.65;;
21202;SDS011;10759;51.982;9.232;2022-09-30T10:33:10;4.40;;;4.00;;
21202;SDS011;10759;51.982;9.232;2022-09-30T10:35:59;6.32;;;5.72;;
21202;SDS011;10759;51.982;9.232;2022-09-30T10:38:30;5.38;;;4.88;;
21202;SDS011;10759;51.982;9.232;2022-09-30T10:41:00;4.00;;;3.63;;
21202;SDS011;10759;51.982;9.232;2022-09-30T10:43:32;5.03;;;4.32;;
21202;SDS011;10759;51.982;9.232;2022-09-30T10:46:06;6.10;;;3.72;;
21202;SDS011;10759;51.982;9.232;2022-09-30T10:48:53;4.18;;;3.72;;
21202;SDS011;10759;51.982;9.232;2022-09-30T10:51:24;4.22;;;3.92;;
21202;SDS011;10759;51.982;9.232;2022-09-30T10:53:55;3.55;;;3.33;;
21202;SDS011;10759;51.982;9.232;2022-09-30T10:56:37;4.55;;;3.45;;
21202;SDS011;10759;51.982;9.232;2022-09-30T10:59:15;6.05;;;4.88;;
21202;SDS011;10759;51.982;9.232;2022-09-30T11:01:52;5.80;;;4.38;;
21202;SDS011;10759;51.982;9.232;2022-09-30T11:04:31;6.50;;;5.88;;
21202;SDS011;10759;51.982;9.232;2022-09-30T11:07:09;5.93;;;4.78;;
21202;SDS011;10759;51.982;9.232;2022-09-30T11:09:45;5.07;;;4.57;;
21202;SDS011;10759;51.982;9.232;2022-09-30T11:12:19;5.00;;;4.50;;
21202;SDS011;10759;51.982;9.232;2022-09-30T11:14:55;5.82;;;4.90;;
21202;SDS011;10759;51.982;9.232;2022-09-30T11:17:32;6.00;;;5.40;;
21202;SDS011;10759;51.982;9.232;2022-09-30T11:20:11;5.07;;;4.57;;
21202;SDS011;10759;51.982;9.232;2022-09-30T11:22:47;6.65;;;5.70;;
21202;SDS011;10759;51.982;9.232;2022-09-30T11:25:21;5.70;;;5.20;;
21202;SDS011;10759;51.982;9.232;2022-09-30T11:27:57;5.65;;;5.15;;
21202;SDS011;10759;51.982;9.232;2022-09-30T11:30:37;5.35;;;4.85;;
21202;SDS011;10759;51.982;9.232;2022-09-30T11:33:22;5.63;;;5.13;;
21202;SDS011;10759;51.982;9.232;2022-09-30T11:36:03;6.57;;;5.97;;
21202;SDS011;10759;51.982;9.232;2022-09-30T11:38:43;6.03;;;5.53;;
21202;SDS011;10759;51.982;9.232;2022-09-30T11:41:25;6.63;;;6.03;;
21202;SDS011;10759;51.982;9.232;2022-09-30T11:44:00;6.53;;;5.93;;
21202;SDS011;10759;51.982;9.232;2022-09-30T11:46:39;6.28;;;5.70;;
21202;SDS011;10759;51.982;9.232;2022-09-30T11:49:27;6.32;;;5.63;;
21202;SDS011;10759;51.982;9.232;2022-09-30T11:52:11;6.70;;;6.10;;
21202;SDS011;10759;51.982;9.232;2022-09-30T11:54:54;6.60;;;5.68;;
21202;SDS011;10759;51.982;9.232;2022-09-30T11:57:41;6.28;;;5.72;;
21202;SDS011;10759;51.982;9.232;2022-09-30T12:00:17;6.65;;;6.05;;
21202;SDS011;10759;51.982;9.232;2022-09-30T12:02:48;6.57;;;5.97;;
21202;SDS011;10759;51.982;9.232;2022-09-30T12:05:21;6.50;;;5.90;;
21202;SDS011;10759;51.982;9.232;2022-09-30T12:07:54;6.55;;;6.05;;
21202;SDS011;10759;51.982;9.232;2022-09-30T12:10:29;7.30;;;6.18;;
21202;SDS011;10759;51.982;9.232;2022-09-30T12:13:02;6.57;;;6.07;;
21202;SDS011;10759;51.982;9.232;2022-09-30T12:15:37;6.82;;;6.13;;
21202;SDS011;10759;51.982;9.232;2022-09-30T12:18:09;6.68;;;6.00;;
21202;SDS011;10759;51.982;9.232;2022-09-30T12:20:41;7.20;;;6.50;;
21202;SDS011;10759;51.982;9.232;2022-09-30T12:23:15;6.68;;;6.18;;
21202;SDS011;10759;51.982;9.232;2022-09-30T12:25:46;6.40;;;5.90;;
21202;SDS011;10759;51.982;9.232;2022-09-30T12:28:23;6.97;;;6.30;;
21202;SDS011;10759;51.982;9.232;2022-09-30T12:34:19;6.70;;;6.15;;
21202;SDS011;10759;51.982;9.232;2022-09-30T12:37:08;6.22;;;5.72;;
21202;SDS011;10759;51.982;9.232;2022-09-30T12:39:55;5.45;;;4.95;;
21202;SDS011;10759;51.982;9.232;2022-09-30T12:42:38;6.50;;;5.72;;
21202;SDS011;10759;51.982;9.232;2022-09-30T12:48:25;6.10;;;5.50;;
21202;SDS011;10759;51.982;9.232;2022-09-30T12:51:03;5.90;;;5.15;;
21202;SDS011;10759;51.982;9.232;2022-09-30T12:53:34;5.90;;;5.32;;
21202;SDS011;10759;51.982;9.232;2022-09-30T12:56:05;6.70;;;5.80;;
21202;SDS011;10759;51.982;9.232;2022-09-30T12:58:37;6.95;;;6.40;;
21202;SDS011;10759;51.982;9.232;2022-09-30T13:01:10;6.22;;;5.72;;
21202;SDS011;10759;51.982;9.232;2022-09-30T13:03:45;6.07;;;4.97;;
21202;SDS011;10759;51.982;9.232;2022-09-30T13:06:18;5.55;;;5.05;;
21202;SDS011;10759;51.982;9.232;2022-09-30T13:09:04;5.65;;;4.80;;
21202;SDS011;10759;51.982;9.232;2022-09-30T13:11:45;5.22;;;4.45;;
21202;SDS011;10759;51.982;9.232;2022-09-30T13:14:15;5.55;;;5.05;;
21202;SDS011;10759;51.982;9.232;2022-09-30T13:19:52;5.72;;;4.53;;
21202;SDS011;10759;51.982;9.232;2022-09-30T13:25:22;4.82;;;4.43;;
21202;SDS011;10759;51.982;9.232;2022-09-30T13:27:51;5.03;;;4.63;;
21202;SDS011;10759;51.982;9.232;2022-09-30T13:30:30;6.18;;;5.57;;
21202;SDS011;10759;51.982;9.232;2022-09-30T13:36:04;6.18;;;4.22;;
21202;SDS011;10759;51.982;9.232;2022-09-30T13:38:38;5.40;;;4.43;;
21202;SDS011;10759;51.982;9.232;2022-09-30T13:41:11;5.60;;;3.72;;
21202;SDS011;10759;51.982;9.232;2022-09-30T13:43:45;4.68;;;3.45;;
21202;SDS011;10759;51.982;9.232;2022-09-30T13:46:21;6.93;;;4.00;;
21202;SDS011;10759;51.982;9.232;2022-09-30T13:48:57;4.28;;;3.88;;
21202;SDS011;10759;51.982;9.232;2022-09-30T13:51:30;4.68;;;4.00;;
21202;SDS011;10759;51.982;9.232;2022-09-30T13:54:04;5.07;;;4.60;;
21202;SDS011;10759;51.982;9.232;2022-09-30T13:56:36;6.45;;;4.20;;
21202;SDS011;10759;51.982;9.232;2022-09-30T14:02:19;5.47;;;3.40;;
21202;SDS011;10759;51.982;9.232;2022-09-30T14:05:19;4.25;;;3.72;;
21202;SDS011;10759;51.982;9.232;2022-09-30T14:08:14;3.72;;;3.33;;
21202;SDS011;10759;51.982;9.232;2022-09-30T14:11:03;4.18;;;3.58;;
21202;SDS011;10759;51.982;9.232;2022-09-30T14:13:43;4.25;;;3.40;;
21202;SDS011;10759;51.982;9.232;2022-09-30T14:19:18;4.78;;;2.92;;
21202;SDS011;10759;51.982;9.232;2022-09-30T14:22:01;4.03;;;2.95;;
21202;SDS011;10759;51.982;9.232;2022-09-30T14:24:32;5.93;;;3.10;;
21202;SDS011;10759;51.982;9.232;2022-09-30T14:30:12;3.40;;;2.60;;
21202;SDS011;10759;51.982;9.232;2022-09-30T14:32:44;2.72;;;2.53;;
21202;SDS011;10759;51.982;9.232;2022-09-30T14:37:45;6.95;;;3.25;;
21202;SDS011;10759;51.982;9.232;2022-09-30T14:40:17;2.80;;;2.40;;
21202;SDS011;10759;51.982;9.232;2022-09-30T14:42:48;3.00;;;2.60;;
21202;SDS011;10759;51.982;9.232;2022-09-30T14:45:18;2.92;;;2.70;;
21202;SDS011;10759;51.982;9.232;2022-09-30T14:47:52;4.07;;;2.95;;
21202;SDS011;10759;51.982;9.232;2022-09-30T14:50:25;3.25;;;2.90;;
21202;SDS011;10759;51.982;9.232;2022-09-30T14:52:57;3.47;;;2.60;;
21202;SDS011;10759;51.982;9.232;2022-09-30T14:55:27;3.80;;;3.05;;
21202;SDS011;10759;51.982;9.232;2022-09-30T15:00:48;3.13;;;2.45;;
21202;SDS011;10759;51.982;9.232;2022-09-30T15:03:25;3.13;;;2.83;;
21202;SDS011;10759;51.982;9.232;2022-09-30T15:05:54;2.97;;;2.67;;
21202;SDS011;10759;51.982;9.232;2022-09-30T15:08:23;3.97;;;2.60;;
21202;SDS011;10759;51.982;9.232;2022-09-30T15:10:52;2.40;;;2.20;;
21202;SDS011;10759;51.982;9.232;2022-09-30T15:13:23;5.32;;;2.78;;
21202;SDS011;10759;51.982;9.232;2022-09-30T15:15:53;2.95;;;2.67;;
21202;SDS011;10759;51.982;9.232;2022-09-30T15:18:22;3.25;;;2.47;;
21202;SDS011;10759;51.982;9.232;2022-09-30T15:20:59;3.05;;;2.67;;
21202;SDS011;10759;51.982;9.232;2022-09-30T15:23:32;2.05;;;1.88;;
21202;SDS011;10759;51.982;9.232;2022-09-30T15:26:02;2.38;;;2.20;;
21202;SDS011;10759;51.982;9.232;2022-09-30T15:28:33;3.60;;;1.80;;
21202;SDS011;10759;51.982;9.232;2022-09-30T15:31:02;3.05;;;2.00;;
21202;SDS011;10759;51.982;9.232;2022-09-30T15:33:31;1.90;;;1.70;;
21202;SDS011;10759;51.982;9.232;2022-09-30T15:36:00;1.95;;;1.70;;
21202;SDS011;10759;51.982;9.232;2022-09-30T15:38:29;2.30;;;1.92;;
21202;SDS011;10759;51.982;9.232;2022-09-30T15:41:00;1.90;;;1.70;;
21202;SDS011;10759;51.982;9.232;2022-09-30T15:43:32;2.70;;;1.88;;
21202;SDS011;10759;51.982;9.232;2022-09-30T15:46:15;2.42;;;2.08;;
21202;SDS011;10759;51.982;9.232;2022-09-30T15:48:51;3.03;;;1.80;;
21202;SDS011;10759;51.982;9.232;2022-09-30T15:51:21;2.00;;;1.27;;
21202;SDS011;10759;51.982;9.232;2022-09-30T15:53:51;2.67;;;1.88;;
21202;SDS011;10759;51.982;9.232;2022-09-30T15:56:23;3.10;;;1.52;;
21202;SDS011;10759;51.982;9.232;2022-09-30T15:58:54;1.88;;;1.60;;
21202;SDS011;10759;51.982;9.232;2022-09-30T16:01:23;3.00;;;1.80;;
21202;SDS011;10759;51.982;9.232;2022-09-30T16:03:59;3.45;;;2.13;;
21202;SDS011;10759;51.982;9.232;2022-09-30T16:09:02;3.05;;;1.85;;